sensor_id;sensor_type;location;lat;lon;timestamp;temperature;humidity
60495;DHT22;46342;49.046;11.920;2023-01-24T00:00:56;4.40;67.00
60495;DHT22;46342;49.046;11.920;2023-01-24T00:03:22;4.40;67.10
60495;DHT22;46342;49.046;11.920;2023-01-24T00:05:48;4.40;67.10
60495;DHT22;46342;49.046;11.920;2023-01-24T00:08:17;4.40;67.10
60495;DHT22;46342;49.046;11.920;2023-01-24T00:10:49;4.40;68.20
60495;DHT22;46342;49.046;11.920;2023-01-24T00:13:15;4.30;67.20
60495;DHT22;46342;49.046;11.920;2023-01-24T00:15:41;4.40;67.30
60495;DHT22;46342;49.046;11.920;2023-01-24T00:18:07;4.40;67.30
60495;DHT22;46342;49.046;11.920;2023-01-24T00:20:33;4.40;67.30
60495;DHT22;46342;49.046;11.920;2023-01-24T00:22:58;4.40;67.30
60495;DHT22;46342;49.046;11.920;2023-01-24T00:25:24;4.40;67.30
60495;DHT22;46342;49.046;11.920;2023-01-24T00:27:49;4.40;67.20
60495;DHT22;46342;49.046;11.920;2023-01-24T00:30:15;4.40;67.20
60495;DHT22;46342;49.046;11.920;2023-01-24T00:32:41;4.40;67.20
60495;DHT22;46342;49.046;11.920;2023-01-24T00:35:07;4.40;67.10
60495;DHT22;46342;49.046;11.920;2023-01-24T00:37:32;4.40;67.10
60495;DHT22;46342;49.046;11.920;2023-01-24T00:39:58;4.40;67.10
60495;DHT22;46342;49.046;11.920;2023-01-24T00:42:24;4.40;67.10
60495;DHT22;46342;49.046;11.920;2023-01-24T00:44:49;4.40;67.10
60495;DHT22;46342;49.046;11.920;2023-01-24T00:47:15;4.40;67.20
60495;DHT22;46342;49.046;11.920;2023-01-24T00:49:40;4.40;67.10
60495;DHT22;46342;49.046;11.920;2023-01-24T00:52:06;4.40;67.10
60495;DHT22;46342;49.046;11.920;2023-01-24T00:54:31;4.40;67.10
60495;DHT22;46342;49.046;11.920;2023-01-24T00:56:57;4.40;67.10
60495;DHT22;46342;49.046;11.920;2023-01-24T00:59:23;4.40;67.10
60495;DHT22;46342;49.046;11.920;2023-01-24T01:01:48;4.40;67.10
60495;DHT22;46342;49.046;11.920;2023-01-24T01:04:14;4.40;67.10
60495;DHT22;46342;49.046;11.920;2023-01-24T01:06:39;4.30;67.10
60495;DHT22;46342;49.046;11.920;2023-01-24T01:09:05;4.40;67.20
60495;DHT22;46342;49.046;11.920;2023-01-24T01:11:30;4.40;67.30
60495;DHT22;46342;49.046;11.920;2023-01-24T01:13:56;4.40;67.20
60495;DHT22;46342;49.046;11.920;2023-01-24T01:16:24;4.30;67.10
60495;DHT22;46342;49.046;11.920;2023-01-24T01:18:52;4.40;67.30
60495;DHT22;46342;49.046;11.920;2023-01-24T01:21:20;4.40;67.20
60495;DHT22;46342;49.046;11.920;2023-01-24T01:23:47;4.40;67.30
60495;DHT22;46342;49.046;11.920;2023-01-24T01:26:19;4.40;67.30
60495;DHT22;46342;49.046;11.920;2023-01-24T01:28:45;4.40;67.40
60495;DHT22;46342;49.046;11.920;2023-01-24T01:31:11;4.40;67.10
60495;DHT22;46342;49.046;11.920;2023-01-24T01:33:37;4.40;67.10
60495;DHT22;46342;49.046;11.920;2023-01-24T01:36:02;4.40;67.20
60495;DHT22;46342;49.046;11.920;2023-01-24T01:38:28;4.40;67.20
60495;DHT22;46342;49.046;11.920;2023-01-24T01:40:55;4.40;67.20
60495;DHT22;46342;49.046;11.920;2023-01-24T01:43:23;4.40;67.30
60495;DHT22;46342;49.046;11.920;2023-01-24T01:45:52;4.40;67.30
60495;DHT22;46342;49.046;11.920;2023-01-24T01:56:40;4.40;67.10
60495;DHT22;46342;49.046;11.920;2023-01-24T01:59:14;4.40;67.30
60495;DHT22;46342;49.046;11.920;2023-01-24T02:01:41;4.30;67.00
60495;DHT22;46342;49.046;11.920;2023-01-24T02:04:22;4.30;67.00
60495;DHT22;46342;49.046;11.920;2023-01-24T02:09:33;4.30;68.10
60495;DHT22;46342;49.046;11.920;2023-01-24T02:12:02;4.30;67.00
60495;DHT22;46342;49.046;11.920;2023-01-24T02:14:29;4.30;67.00
60495;DHT22;46342;49.046;11.920;2023-01-24T02:17:19;4.30;67.00
60495;DHT22;46342;49.046;11.920;2023-01-24T02:25:37;4.30;67.00
60495;DHT22;46342;49.046;11.920;2023-01-24T02:28:05;4.30;67.20
60495;DHT22;46342;49.046;11.920;2023-01-24T02:30:32;4.30;67.00
60495;DHT22;46342;49.046;11.920;2023-01-24T02:32:58;4.30;67.00
60495;DHT22;46342;49.046;11.920;2023-01-24T02:35:25;4.30;67.00
60495;DHT22;46342;49.046;11.920;2023-01-24T02:37:52;4.30;67.00
60495;DHT22;46342;49.046;11.920;2023-01-24T02:40:18;4.30;67.50
60495;DHT22;46342;49.046;11.920;2023-01-24T02:42:44;4.30;67.00
60495;DHT22;46342;49.046;11.920;2023-01-24T02:45:30;4.40;67.10
60495;DHT22;46342;49.046;11.920;2023-01-24T02:47:57;4.30;67.30
60495;DHT22;46342;49.046;11.920;2023-01-24T02:50:27;4.40;67.10
60495;DHT22;46342;49.046;11.920;2023-01-24T02:52:54;4.30;67.10
60495;DHT22;46342;49.046;11.920;2023-01-24T02:55:38;4.30;67.00
60495;DHT22;46342;49.046;11.920;2023-01-24T02:58:23;4.30;67.00
60495;DHT22;46342;49.046;11.920;2023-01-24T03:00:49;4.30;67.00
60495;DHT22;46342;49.046;11.920;2023-01-24T03:03:15;4.30;67.00
60495;DHT22;46342;49.046;11.920;2023-01-24T03:05:40;4.30;67.00
60495;DHT22;46342;49.046;11.920;2023-01-24T03:08:23;4.30;66.90
60495;DHT22;46342;49.046;11.920;2023-01-24T03:10:49;4.30;66.90
60495;DHT22;46342;49.046;11.920;2023-01-24T03:13:15;4.30;67.00
60495;DHT22;46342;49.046;11.920;2023-01-24T03:16:03;4.30;66.90
60495;DHT22;46342;49.046;11.920;2023-01-24T03:18:47;4.30;66.90
60495;DHT22;46342;49.046;11.920;2023-01-24T03:21:31;4.40;67.10
60495;DHT22;46342;49.046;11.920;2023-01-24T03:24:15;4.30;66.50
60495;DHT22;46342;49.046;11.920;2023-01-24T03:27:00;4.30;66.40
60495;DHT22;46342;49.046;11.920;2023-01-24T03:29:43;4.30;66.40
60495;DHT22;46342;49.046;11.920;2023-01-24T03:32:28;4.30;66.50
60495;DHT22;46342;49.046;11.920;2023-01-24T03:35:12;4.20;66.40
60495;DHT22;46342;49.046;11.920;2023-01-24T03:37:37;4.20;66.50
60495;DHT22;46342;49.046;11.920;2023-01-24T03:40:22;4.20;66.70
60495;DHT22;46342;49.046;11.920;2023-01-24T03:42:47;4.20;66.70
60495;DHT22;46342;49.046;11.920;2023-01-24T03:45:25;4.20;66.80
60495;DHT22;46342;49.046;11.920;2023-01-24T03:47:52;4.20;67.00
60495;DHT22;46342;49.046;11.920;2023-01-24T03:53:10;4.20;67.00
60495;DHT22;46342;49.046;11.920;2023-01-24T03:55:36;4.20;66.90
60495;DHT22;46342;49.046;11.920;2023-01-24T03:58:02;4.20;66.90
60495;DHT22;46342;49.046;11.920;2023-01-24T04:00:28;4.20;66.90
60495;DHT22;46342;49.046;11.920;2023-01-24T04:02:53;4.20;66.90
60495;DHT22;46342;49.046;11.920;2023-01-24T04:05:19;4.20;66.90
60495;DHT22;46342;49.046;11.920;2023-01-24T04:07:46;4.20;67.20
60495;DHT22;46342;49.046;11.920;2023-01-24T04:10:12;4.20;66.80
60495;DHT22;46342;49.046;11.920;2023-01-24T04:12:39;4.20;66.80
60495;DHT22;46342;49.046;11.920;2023-01-24T04:15:05;4.20;66.80
60495;DHT22;46342;49.046;11.920;2023-01-24T04:17:31;4.20;66.80
60495;DHT22;46342;49.046;11.920;2023-01-24T04:19:57;4.20;66.90
60495;DHT22;46342;49.046;11.920;2023-01-24T04:22:23;4.20;66.90
60495;DHT22;46342;49.046;11.920;2023-01-24T04:24:48;4.20;66.80
60495;DHT22;46342;49.046;11.920;2023-01-24T04:27:14;4.20;66.80
60495;DHT22;46342;49.046;11.920;2023-01-24T04:29:40;4.20;66.80
60495;DHT22;46342;49.046;11.920;2023-01-24T04:32:05;4.20;66.80
60495;DHT22;46342;49.046;11.920;2023-01-24T04:34:31;4.20;66.80
60495;DHT22;46342;49.046;11.920;2023-01-24T04:36:57;4.20;66.80
60495;DHT22;46342;49.046;11.920;2023-01-24T04:39:22;4.20;66.80
60495;DHT22;46342;49.046;11.920;2023-01-24T04:41:48;4.20;66.80
60495;DHT22;46342;49.046;11.920;2023-01-24T04:44:13;4.20;66.80
60495;DHT22;46342;49.046;11.920;2023-01-24T04:46:39;4.20;66.80
60495;DHT22;46342;49.046;11.920;2023-01-24T04:49:04;4.10;66.70
60495;DHT22;46342;49.046;11.920;2023-01-24T04:51:30;4.10;66.70
60495;DHT22;46342;49.046;11.920;2023-01-24T04:53:56;4.10;66.70
60495;DHT22;46342;49.046;11.920;2023-01-24T04:56:22;4.20;66.80
60495;DHT22;46342;49.046;11.920;2023-01-24T04:58:47;4.10;66.70
60495;DHT22;46342;49.046;11.920;2023-01-24T05:01:13;4.10;67.10
60495;DHT22;46342;49.046;11.920;2023-01-24T05:03:38;4.10;66.70
60495;DHT22;46342;49.046;11.920;2023-01-24T05:06:04;4.10;66.70
60495;DHT22;46342;49.046;11.920;2023-01-24T05:08:30;4.10;66.70
60495;DHT22;46342;49.046;11.920;2023-01-24T05:10:55;4.10;66.70
60495;DHT22;46342;49.046;11.920;2023-01-24T05:13:21;4.20;66.90
60495;DHT22;46342;49.046;11.920;2023-01-24T05:15:47;4.10;66.80
60495;DHT22;46342;49.046;11.920;2023-01-24T05:18:13;4.10;66.90
60495;DHT22;46342;49.046;11.920;2023-01-24T05:20:39;4.10;66.90
60495;DHT22;46342;49.046;11.920;2023-01-24T05:23:04;4.10;66.90
60495;DHT22;46342;49.046;11.920;2023-01-24T05:25:30;4.10;66.90
60495;DHT22;46342;49.046;11.920;2023-01-24T05:27:55;4.20;66.90
60495;DHT22;46342;49.046;11.920;2023-01-24T05:30:21;4.20;67.00
60495;DHT22;46342;49.046;11.920;2023-01-24T05:32:46;4.20;67.00
60495;DHT22;46342;49.046;11.920;2023-01-24T05:35:12;4.10;66.90
60495;DHT22;46342;49.046;11.920;2023-01-24T05:37:38;4.20;67.00
60495;DHT22;46342;49.046;11.920;2023-01-24T05:40:05;4.20;66.90
60495;DHT22;46342;49.046;11.920;2023-01-24T05:42:31;4.20;66.90
60495;DHT22;46342;49.046;11.920;2023-01-24T05:44:57;4.20;66.90
60495;DHT22;46342;49.046;11.920;2023-01-24T05:47:22;4.20;66.90
60495;DHT22;46342;49.046;11.920;2023-01-24T05:49:49;4.20;66.90
60495;DHT22;46342;49.046;11.920;2023-01-24T05:52:16;4.20;66.90
60495;DHT22;46342;49.046;11.920;2023-01-24T05:54:51;4.10;66.80
60495;DHT22;46342;49.046;11.920;2023-01-24T05:57:17;4.20;67.00
60495;DHT22;46342;49.046;11.920;2023-01-24T05:59:43;4.20;66.90
60495;DHT22;46342;49.046;11.920;2023-01-24T06:02:08;4.20;66.90
60495;DHT22;46342;49.046;11.920;2023-01-24T06:04:34;4.20;66.90
60495;DHT22;46342;49.046;11.920;2023-01-24T06:07:00;4.20;66.90
60495;DHT22;46342;49.046;11.920;2023-01-24T06:09:25;4.20;67.00
60495;DHT22;46342;49.046;11.920;2023-01-24T06:11:51;4.20;67.00
60495;DHT22;46342;49.046;11.920;2023-01-24T06:14:17;4.20;67.00
60495;DHT22;46342;49.046;11.920;2023-01-24T06:16:44;4.30;67.10
60495;DHT22;46342;49.046;11.920;2023-01-24T06:19:13;4.20;67.00
60495;DHT22;46342;49.046;11.920;2023-01-24T06:24:23;4.20;67.10
60495;DHT22;46342;49.046;11.920;2023-01-24T06:26:50;4.20;67.20
60495;DHT22;46342;49.046;11.920;2023-01-24T06:29:17;4.20;67.00
60495;DHT22;46342;49.046;11.920;2023-01-24T06:39:57;4.30;67.50
60495;DHT22;46342;49.046;11.920;2023-01-24T06:42:23;4.30;67.10
60495;DHT22;46342;49.046;11.920;2023-01-24T06:44:49;4.30;67.20
60495;DHT22;46342;49.046;11.920;2023-01-24T06:47:15;4.30;68.10
60495;DHT22;46342;49.046;11.920;2023-01-24T06:49:41;4.20;67.20
60495;DHT22;46342;49.046;11.920;2023-01-24T06:52:08;4.30;67.30
60495;DHT22;46342;49.046;11.920;2023-01-24T06:54:34;4.30;67.30
60495;DHT22;46342;49.046;11.920;2023-01-24T06:57:01;4.30;67.30
60495;DHT22;46342;49.046;11.920;2023-01-24T06:59:27;4.30;67.40
60495;DHT22;46342;49.046;11.920;2023-01-24T07:01:52;4.30;67.30
60495;DHT22;46342;49.046;11.920;2023-01-24T07:04:18;4.30;67.30
60495;DHT22;46342;49.046;11.920;2023-01-24T07:06:43;4.30;67.30
60495;DHT22;46342;49.046;11.920;2023-01-24T07:09:09;4.40;67.40
60495;DHT22;46342;49.046;11.920;2023-01-24T07:11:35;4.40;67.50
60495;DHT22;46342;49.046;11.920;2023-01-24T07:14:01;4.40;67.40
60495;DHT22;46342;49.046;11.920;2023-01-24T07:16:27;4.40;68.40
60495;DHT22;46342;49.046;11.920;2023-01-24T07:18:53;4.40;67.40
60495;DHT22;46342;49.046;11.920;2023-01-24T07:21:18;4.40;67.40
60495;DHT22;46342;49.046;11.920;2023-01-24T07:23:46;4.40;67.40
60495;DHT22;46342;49.046;11.920;2023-01-24T07:26:12;4.40;68.40
60495;DHT22;46342;49.046;11.920;2023-01-24T07:28:38;4.40;67.40
60495;DHT22;46342;49.046;11.920;2023-01-24T07:31:05;4.40;67.40
60495;DHT22;46342;49.046;11.920;2023-01-24T07:33:31;4.40;67.50
60495;DHT22;46342;49.046;11.920;2023-01-24T07:35:56;4.50;67.60
60495;DHT22;46342;49.046;11.920;2023-01-24T07:38:22;4.50;67.50
60495;DHT22;46342;49.046;11.920;2023-01-24T07:40:48;4.50;67.50
60495;DHT22;46342;49.046;11.920;2023-01-24T07:43:13;4.50;67.50
60495;DHT22;46342;49.046;11.920;2023-01-24T07:45:39;4.50;67.50
60495;DHT22;46342;49.046;11.920;2023-01-24T07:48:06;4.50;67.40
60495;DHT22;46342;49.046;11.920;2023-01-24T07:50:33;4.50;67.50
60495;DHT22;46342;49.046;11.920;2023-01-24T07:52:59;4.50;67.50
60495;DHT22;46342;49.046;11.920;2023-01-24T07:55:25;4.50;67.50
60495;DHT22;46342;49.046;11.920;2023-01-24T07:57:51;4.50;67.40
60495;DHT22;46342;49.046;11.920;2023-01-24T08:00:17;4.50;67.40
60495;DHT22;46342;49.046;11.920;2023-01-24T08:02:44;4.60;67.60
60495;DHT22;46342;49.046;11.920;2023-01-24T08:05:10;4.60;67.50
60495;DHT22;46342;49.046;11.920;2023-01-24T08:07:36;4.60;67.50
60495;DHT22;46342;49.046;11.920;2023-01-24T08:10:02;4.60;67.50
60495;DHT22;46342;49.046;11.920;2023-01-24T08:12:28;4.60;67.50
60495;DHT22;46342;49.046;11.920;2023-01-24T08:14:53;4.60;67.50
60495;DHT22;46342;49.046;11.920;2023-01-24T08:17:19;4.60;67.50
60495;DHT22;46342;49.046;11.920;2023-01-24T08:19:45;4.60;67.50
60495;DHT22;46342;49.046;11.920;2023-01-24T08:22:10;4.60;67.50
60495;DHT22;46342;49.046;11.920;2023-01-24T08:24:36;4.60;67.50
60495;DHT22;46342;49.046;11.920;2023-01-24T08:27:02;4.60;67.50
60495;DHT22;46342;49.046;11.920;2023-01-24T08:29:28;4.60;67.50
60495;DHT22;46342;49.046;11.920;2023-01-24T08:31:54;4.60;67.60
60495;DHT22;46342;49.046;11.920;2023-01-24T08:34:20;4.60;67.50
60495;DHT22;46342;49.046;11.920;2023-01-24T08:36:46;4.70;67.70
60495;DHT22;46342;49.046;11.920;2023-01-24T08:39:14;4.70;67.80
60495;DHT22;46342;49.046;11.920;2023-01-24T08:41:41;4.60;67.70
60495;DHT22;46342;49.046;11.920;2023-01-24T08:44:09;4.70;67.80
60495;DHT22;46342;49.046;11.920;2023-01-24T08:46:34;4.70;67.80
60495;DHT22;46342;49.046;11.920;2023-01-24T08:49:02;4.80;67.90
60495;DHT22;46342;49.046;11.920;2023-01-24T08:51:27;4.80;67.80
60495;DHT22;46342;49.046;11.920;2023-01-24T08:53:53;4.80;67.80
60495;DHT22;46342;49.046;11.920;2023-01-24T08:56:18;4.80;67.80
60495;DHT22;46342;49.046;11.920;2023-01-24T08:58:44;4.80;67.70
60495;DHT22;46342;49.046;11.920;2023-01-24T09:01:10;4.80;67.70
60495;DHT22;46342;49.046;11.920;2023-01-24T09:03:36;4.80;67.70
60495;DHT22;46342;49.046;11.920;2023-01-24T09:06:03;4.90;67.80
60495;DHT22;46342;49.046;11.920;2023-01-24T09:08:29;4.90;67.80
60495;DHT22;46342;49.046;11.920;2023-01-24T09:10:57;4.90;67.70
60495;DHT22;46342;49.046;11.920;2023-01-24T09:13:24;4.90;67.70
60495;DHT22;46342;49.046;11.920;2023-01-24T09:15:49;4.90;67.60
60495;DHT22;46342;49.046;11.920;2023-01-24T09:18:15;4.90;67.60
60495;DHT22;46342;49.046;11.920;2023-01-24T09:20:42;4.90;67.60
60495;DHT22;46342;49.046;11.920;2023-01-24T09:23:12;4.90;67.60
60495;DHT22;46342;49.046;11.920;2023-01-24T09:25:40;5.00;67.80
60495;DHT22;46342;49.046;11.920;2023-01-24T09:28:06;5.00;67.70
60495;DHT22;46342;49.046;11.920;2023-01-24T09:30:32;5.00;67.70
60495;DHT22;46342;49.046;11.920;2023-01-24T09:33:02;5.00;67.70
60495;DHT22;46342;49.046;11.920;2023-01-24T09:35:27;5.00;67.70
60495;DHT22;46342;49.046;11.920;2023-01-24T09:37:53;5.00;67.70
60495;DHT22;46342;49.046;11.920;2023-01-24T09:40:25;5.00;67.60
60495;DHT22;46342;49.046;11.920;2023-01-24T09:45:32;5.10;67.70
60495;DHT22;46342;49.046;11.920;2023-01-24T09:48:00;5.10;67.90
60495;DHT22;46342;49.046;11.920;2023-01-24T09:55:43;5.10;67.90
60495;DHT22;46342;49.046;11.920;2023-01-24T09:58:27;5.20;67.90
60495;DHT22;46342;49.046;11.920;2023-01-24T10:01:15;5.20;68.00
60495;DHT22;46342;49.046;11.920;2023-01-24T10:03:42;5.20;67.90
60495;DHT22;46342;49.046;11.920;2023-01-24T10:06:20;5.20;67.80
60495;DHT22;46342;49.046;11.920;2023-01-24T10:08:55;5.30;67.90
60495;DHT22;46342;49.046;11.920;2023-01-24T10:22:38;5.40;67.90
60495;DHT22;46342;49.046;11.920;2023-01-24T10:25:18;5.40;68.00
60495;DHT22;46342;49.046;11.920;2023-01-24T10:27:51;5.40;68.20
60495;DHT22;46342;49.046;11.920;2023-01-24T10:30:28;5.50;68.60
60495;DHT22;46342;49.046;11.920;2023-01-24T10:33:00;5.50;68.80
60495;DHT22;46342;49.046;11.920;2023-01-24T10:35:36;5.60;68.80
60495;DHT22;46342;49.046;11.920;2023-01-24T10:38:07;5.70;68.70
60495;DHT22;46342;49.046;11.920;2023-01-24T10:40:48;5.70;68.40
60495;DHT22;46342;49.046;11.920;2023-01-24T10:43:14;5.90;68.30
60495;DHT22;46342;49.046;11.920;2023-01-24T10:46:04;5.90;68.50
60495;DHT22;46342;49.046;11.920;2023-01-24T10:48:45;5.90;68.30
60495;DHT22;46342;49.046;11.920;2023-01-24T10:51:19;6.00;68.20
60495;DHT22;46342;49.046;11.920;2023-01-24T10:53:46;6.00;67.90
60495;DHT22;46342;49.046;11.920;2023-01-24T10:56:16;6.10;67.80
60495;DHT22;46342;49.046;11.920;2023-01-24T10:58:43;6.10;67.50
60495;DHT22;46342;49.046;11.920;2023-01-24T11:01:21;6.10;67.40
60495;DHT22;46342;49.046;11.920;2023-01-24T11:03:49;6.10;67.40
60495;DHT22;46342;49.046;11.920;2023-01-24T11:08:54;6.10;67.20
60495;DHT22;46342;49.046;11.920;2023-01-24T11:11:28;6.10;67.30
60495;DHT22;46342;49.046;11.920;2023-01-24T11:14:00;6.20;67.40
60495;DHT22;46342;49.046;11.920;2023-01-24T11:16:54;6.20;67.30
60495;DHT22;46342;49.046;11.920;2023-01-24T11:19:33;6.20;67.20
60495;DHT22;46342;49.046;11.920;2023-01-24T11:22:18;6.20;67.10
60495;DHT22;46342;49.046;11.920;2023-01-24T11:24:45;6.20;67.10
60495;DHT22;46342;49.046;11.920;2023-01-24T11:27:20;6.20;66.90
60495;DHT22;46342;49.046;11.920;2023-01-24T11:30:06;6.20;66.60
60495;DHT22;46342;49.046;11.920;2023-01-24T11:35:22;6.20;66.90
60495;DHT22;46342;49.046;11.920;2023-01-24T11:40:38;6.20;67.10
60495;DHT22;46342;49.046;11.920;2023-01-24T12:06:12;6.30;66.70
60495;DHT22;46342;49.046;11.920;2023-01-24T12:09:19;6.30;66.90
60495;DHT22;46342;49.046;11.920;2023-01-24T12:12:20;6.30;66.80
60495;DHT22;46342;49.046;11.920;2023-01-24T12:20:57;6.30;66.60
60495;DHT22;46342;49.046;11.920;2023-01-24T12:26:38;6.30;66.50
60495;DHT22;46342;49.046;11.920;2023-01-24T12:31:59;6.30;66.30
60495;DHT22;46342;49.046;11.920;2023-01-24T12:37:42;6.30;66.30
60495;DHT22;46342;49.046;11.920;2023-01-24T12:42:59;6.30;66.40
60495;DHT22;46342;49.046;11.920;2023-01-24T12:45:54;6.30;66.10
60495;DHT22;46342;49.046;11.920;2023-01-24T12:48:33;6.20;66.10
60495;DHT22;46342;49.046;11.920;2023-01-24T12:51:13;6.20;66.10
60495;DHT22;46342;49.046;11.920;2023-01-24T12:56:44;6.20;66.30
60495;DHT22;46342;49.046;11.920;2023-01-24T12:59:13;6.20;66.30
60495;DHT22;46342;49.046;11.920;2023-01-24T13:04:20;6.20;66.30
60495;DHT22;46342;49.046;11.920;2023-01-24T13:09:53;6.20;66.10
60495;DHT22;46342;49.046;11.920;2023-01-24T13:12:26;6.20;65.90
60495;DHT22;46342;49.046;11.920;2023-01-24T13:15:10;6.20;65.90
60495;DHT22;46342;49.046;11.920;2023-01-24T13:23:19;6.20;65.90
60495;DHT22;46342;49.046;11.920;2023-01-24T13:26:40;6.20;66.00
60495;DHT22;46342;49.046;11.920;2023-01-24T13:34:17;6.20;66.10
60495;DHT22;46342;49.046;11.920;2023-01-24T13:36:48;6.20;66.40
60495;DHT22;46342;49.046;11.920;2023-01-24T13:44:42;6.20;65.90
60495;DHT22;46342;49.046;11.920;2023-01-24T13:47:22;6.10;65.80
60495;DHT22;46342;49.046;11.920;2023-01-24T13:55:04;6.10;65.90
60495;DHT22;46342;49.046;11.920;2023-01-24T13:57:33;6.10;66.00
60495;DHT22;46342;49.046;11.920;2023-01-24T14:07:54;6.10;65.80
60495;DHT22;46342;49.046;11.920;2023-01-24T14:10:38;6.00;65.70
60495;DHT22;46342;49.046;11.920;2023-01-24T14:13:09;6.00;65.70
60495;DHT22;46342;49.046;11.920;2023-01-24T14:15:50;6.00;65.70
60495;DHT22;46342;49.046;11.920;2023-01-24T14:18:47;6.00;65.70
60495;DHT22;46342;49.046;11.920;2023-01-24T14:21:20;6.00;65.70
60495;DHT22;46342;49.046;11.920;2023-01-24T14:23:52;5.90;65.80
60495;DHT22;46342;49.046;11.920;2023-01-24T14:26:22;5.90;65.80
60495;DHT22;46342;49.046;11.920;2023-01-24T14:28:52;5.90;65.80
60495;DHT22;46342;49.046;11.920;2023-01-24T14:31:29;5.90;65.60
60495;DHT22;46342;49.046;11.920;2023-01-24T14:34:30;5.90;65.40
60495;DHT22;46342;49.046;11.920;2023-01-24T14:37:12;5.80;65.20
60495;DHT22;46342;49.046;11.920;2023-01-24T14:39:38;5.80;65.20
60495;DHT22;46342;49.046;11.920;2023-01-24T14:42:07;5.80;65.40
60495;DHT22;46342;49.046;11.920;2023-01-24T14:44:38;5.70;65.50
60495;DHT22;46342;49.046;11.920;2023-01-24T14:47:25;5.70;65.60
60495;DHT22;46342;49.046;11.920;2023-01-24T14:49:58;5.70;65.70
60495;DHT22;46342;49.046;11.920;2023-01-24T14:52:30;5.70;65.70
60495;DHT22;46342;49.046;11.920;2023-01-24T14:54:58;5.60;65.70
60495;DHT22;46342;49.046;11.920;2023-01-24T14:57:29;5.60;65.80
60495;DHT22;46342;49.046;11.920;2023-01-24T15:02:56;5.60;65.90
60495;DHT22;46342;49.046;11.920;2023-01-24T15:05:32;5.60;65.90
60495;DHT22;46342;49.046;11.920;2023-01-24T15:08:00;5.60;65.80
60495;DHT22;46342;49.046;11.920;2023-01-24T15:10:28;5.60;65.90
60495;DHT22;46342;49.046;11.920;2023-01-24T15:12:58;5.50;65.80
60495;DHT22;46342;49.046;11.920;2023-01-24T15:15:25;5.50;65.90
60495;DHT22;46342;49.046;11.920;2023-01-24T15:17:56;5.50;65.90
60495;DHT22;46342;49.046;11.920;2023-01-24T15:20:24;5.50;66.00
60495;DHT22;46342;49.046;11.920;2023-01-24T15:22:53;5.50;66.00
60495;DHT22;46342;49.046;11.920;2023-01-24T15:25:21;5.50;66.00
60495;DHT22;46342;49.046;11.920;2023-01-24T15:27:48;5.50;65.90
60495;DHT22;46342;49.046;11.920;2023-01-24T15:32:48;5.50;66.00
60495;DHT22;46342;49.046;11.920;2023-01-24T15:35:49;5.50;65.90
60495;DHT22;46342;49.046;11.920;2023-01-24T15:38:27;5.50;66.10
60495;DHT22;46342;49.046;11.920;2023-01-24T15:43:39;5.40;65.80
60495;DHT22;46342;49.046;11.920;2023-01-24T15:46:23;5.40;65.90
60495;DHT22;46342;49.046;11.920;2023-01-24T15:49:29;5.40;65.90
60495;DHT22;46342;49.046;11.920;2023-01-24T15:52:15;5.40;65.90
60495;DHT22;46342;49.046;11.920;2023-01-24T15:54:47;5.30;65.90
60495;DHT22;46342;49.046;11.920;2023-01-24T15:57:34;5.30;65.80
60495;DHT22;46342;49.046;11.920;2023-01-24T16:02:33;5.30;66.00
60495;DHT22;46342;49.046;11.920;2023-01-24T16:05:00;5.20;65.80
60495;DHT22;46342;49.046;11.920;2023-01-24T16:07:26;5.20;65.90
60495;DHT22;46342;49.046;11.920;2023-01-24T16:09:51;5.20;65.90
60495;DHT22;46342;49.046;11.920;2023-01-24T16:12:21;5.20;66.00
60495;DHT22;46342;49.046;11.920;2023-01-24T16:14:52;5.10;66.00
60495;DHT22;46342;49.046;11.920;2023-01-24T16:17:25;5.10;66.10
60495;DHT22;46342;49.046;11.920;2023-01-24T16:19:51;5.20;66.20
60495;DHT22;46342;49.046;11.920;2023-01-24T16:22:17;5.10;66.00
60495;DHT22;46342;49.046;11.920;2023-01-24T16:24:43;5.10;66.00
60495;DHT22;46342;49.046;11.920;2023-01-24T16:27:12;5.10;66.00
60495;DHT22;46342;49.046;11.920;2023-01-24T16:29:39;5.10;66.00
60495;DHT22;46342;49.046;11.920;2023-01-24T16:32:19;5.00;65.90
60495;DHT22;46342;49.046;11.920;2023-01-24T16:34:45;5.00;66.00
60495;DHT22;46342;49.046;11.920;2023-01-24T16:37:11;5.00;66.30
60495;DHT22;46342;49.046;11.920;2023-01-24T16:39:36;5.00;66.00
60495;DHT22;46342;49.046;11.920;2023-01-24T16:42:02;5.00;66.00
60495;DHT22;46342;49.046;11.920;2023-01-24T16:44:28;4.90;65.90
60495;DHT22;46342;49.046;11.920;2023-01-24T16:46:53;4.90;65.90
60495;DHT22;46342;49.046;11.920;2023-01-24T16:49:19;4.90;66.00
60495;DHT22;46342;49.046;11.920;2023-01-24T16:51:45;4.90;66.00
60495;DHT22;46342;49.046;11.920;2023-01-24T16:54:11;4.90;66.10
60495;DHT22;46342;49.046;11.920;2023-01-24T16:56:38;4.90;66.10
60495;DHT22;46342;49.046;11.920;2023-01-24T16:59:03;4.80;66.00
60495;DHT22;46342;49.046;11.920;2023-01-24T17:01:29;4.80;66.00
60495;DHT22;46342;49.046;11.920;2023-01-24T17:03:54;4.80;66.00
60495;DHT22;46342;49.046;11.920;2023-01-24T17:06:20;4.80;65.90
60495;DHT22;46342;49.046;11.920;2023-01-24T17:08:50;4.80;66.00
60495;DHT22;46342;49.046;11.920;2023-01-24T17:11:16;4.80;67.00
60495;DHT22;46342;49.046;11.920;2023-01-24T17:13:45;4.80;66.20
60495;DHT22;46342;49.046;11.920;2023-01-24T17:16:10;4.80;66.20
60495;DHT22;46342;49.046;11.920;2023-01-24T17:18:36;4.70;66.20
60495;DHT22;46342;49.046;11.920;2023-01-24T17:21:07;4.70;66.20
60495;DHT22;46342;49.046;11.920;2023-01-24T17:23:34;4.70;66.30
60495;DHT22;46342;49.046;11.920;2023-01-24T17:26:02;4.70;66.20
60495;DHT22;46342;49.046;11.920;2023-01-24T17:28:28;4.70;66.20
60495;DHT22;46342;49.046;11.920;2023-01-24T17:30:53;4.70;66.30
60495;DHT22;46342;49.046;11.920;2023-01-24T17:33:19;4.70;66.40
60495;DHT22;46342;49.046;11.920;2023-01-24T17:35:44;4.70;66.50
60495;DHT22;46342;49.046;11.920;2023-01-24T17:38:10;4.70;66.50
60495;DHT22;46342;49.046;11.920;2023-01-24T17:40:37;4.60;66.40
60495;DHT22;46342;49.046;11.920;2023-01-24T17:43:02;4.60;66.30
60495;DHT22;46342;49.046;11.920;2023-01-24T17:45:28;4.60;66.30
60495;DHT22;46342;49.046;11.920;2023-01-24T17:47:53;4.60;66.20
60495;DHT22;46342;49.046;11.920;2023-01-24T17:50:19;4.60;66.20
60495;DHT22;46342;49.046;11.920;2023-01-24T17:52:45;4.60;66.20
60495;DHT22;46342;49.046;11.920;2023-01-24T17:55:11;4.60;66.30
60495;DHT22;46342;49.046;11.920;2023-01-24T17:57:36;4.60;66.40
60495;DHT22;46342;49.046;11.920;2023-01-24T18:00:03;4.60;66.50
60495;DHT22;46342;49.046;11.920;2023-01-24T18:02:29;4.60;66.60
60495;DHT22;46342;49.046;11.920;2023-01-24T18:04:54;4.60;66.60
60495;DHT22;46342;49.046;11.920;2023-01-24T18:07:20;4.50;66.40
60495;DHT22;46342;49.046;11.920;2023-01-24T18:09:46;4.50;66.50
60495;DHT22;46342;49.046;11.920;2023-01-24T18:12:12;4.50;66.40